sensor_id;sensor_type;location;lat;lon;timestamp;pressure;altitude;pressure_sealevel;temperature
13410;BMP180;6775;49.574;11.170;2023-10-31T00:01:07;95814.91;;;13.16
13410;BMP180;6775;49.574;11.170;2023-10-31T00:03:37;95807.00;;;13.17
13410;BMP180;6775;49.574;11.170;2023-10-31T00:06:07;95807.78;;;13.18
13410;BMP180;6775;49.574;11.170;2023-10-31T00:08:35;95811.38;;;13.17
13410;BMP180;6775;49.574;11.170;2023-10-31T00:11:03;95816.69;;;13.15
13410;BMP180;6775;49.574;11.170;2023-10-31T00:13:31;95820.06;;;13.16
13410;BMP180;6775;49.574;11.170;2023-10-31T00:16:00;95818.47;;;13.15
13410;BMP180;6775;49.574;11.170;2023-10-31T00:18:28;95822.81;;;13.14
13410;BMP180;6775;49.574;11.170;2023-10-31T00:20:58;95826.38;;;13.13
13410;BMP180;6775;49.574;11.170;2023-10-31T00:23:26;95823.97;;;13.12
13410;BMP180;6775;49.574;11.170;2023-10-31T00:25:54;95825.75;;;13.11
13410;BMP180;6775;49.574;11.170;2023-10-31T00:28:22;95831.72;;;13.12
13410;BMP180;6775;49.574;11.170;2023-10-31T00:30:50;95825.94;;;13.10
13410;BMP180;6775;49.574;11.170;2023-10-31T00:33:18;95839.97;;;13.08
13410;BMP180;6775;49.574;11.170;2023-10-31T00:35:46;95837.56;;;13.06
13410;BMP180;6775;49.574;11.170;2023-10-31T00:38:15;95832.25;;;13.08
13410;BMP180;6775;49.574;11.170;2023-10-31T00:40:44;95842.56;;;13.08
13410;BMP180;6775;49.574;11.170;2023-10-31T00:43:12;95837.41;;;13.08
13410;BMP180;6775;49.574;11.170;2023-10-31T00:45:40;95835.44;;;13.09
13410;BMP180;6775;49.574;11.170;2023-10-31T00:48:08;95841.78;;;13.07
13410;BMP180;6775;49.574;11.170;2023-10-31T00:50:36;95840.16;;;13.06
13410;BMP180;6775;49.574;11.170;2023-10-31T00:53:04;95841.13;;;13.05
13410;BMP180;6775;49.574;11.170;2023-10-31T00:55:33;95837.94;;;13.03
13410;BMP180;6775;49.574;11.170;2023-10-31T00:58:02;95847.28;;;13.04
13410;BMP180;6775;49.574;11.170;2023-10-31T01:00:30;95847.47;;;13.03
13410;BMP180;6775;49.574;11.170;2023-10-31T01:02:58;95855.19;;;13.03
13410;BMP180;6775;49.574;11.170;2023-10-31T01:05:26;95864.50;;;13.04
13410;BMP180;6775;49.574;11.170;2023-10-31T01:07:55;95851.63;;;13.04
13410;BMP180;6775;49.574;11.170;2023-10-31T01:10:23;95850.81;;;13.03
13410;BMP180;6775;49.574;11.170;2023-10-31T01:12:52;95854.19;;;13.04
13410;BMP180;6775;49.574;11.170;2023-10-31T01:15:20;95851.19;;;13.00
13410;BMP180;6775;49.574;11.170;2023-10-31T01:17:48;95846.03;;;13.00
13410;BMP180;6775;49.574;11.170;2023-10-31T01:20:17;95845.56;;;12.97
13410;BMP180;6775;49.574;11.170;2023-10-31T01:22:45;95846.72;;;12.94
13410;BMP180;6775;49.574;11.170;2023-10-31T01:25:13;95851.88;;;12.94
13410;BMP180;6775;49.574;11.170;2023-10-31T01:27:41;95856.03;;;12.95
13410;BMP180;6775;49.574;11.170;2023-10-31T01:30:13;95858.63;;;12.95
13410;BMP180;6775;49.574;11.170;2023-10-31T01:32:41;95858.63;;;12.95
13410;BMP180;6775;49.574;11.170;2023-10-31T01:35:10;95873.31;;;12.95
13410;BMP180;6775;49.574;11.170;2023-10-31T01:37:38;95867.19;;;12.96
13410;BMP180;6775;49.574;11.170;2023-10-31T01:40:08;95864.59;;;12.96
13410;BMP180;6775;49.574;11.170;2023-10-31T01:42:36;95860.22;;;12.96
13410;BMP180;6775;49.574;11.170;2023-10-31T01:45:06;95859.44;;;12.96
13410;BMP180;6775;49.574;11.170;2023-10-31T01:47:35;95848.31;;;12.95
13410;BMP180;6775;49.574;11.170;2023-10-31T01:50:07;95853.03;;;12.92
13410;BMP180;6775;49.574;11.170;2023-10-31T01:52:37;95851.59;;;12.89
13410;BMP180;6775;49.574;11.170;2023-10-31T01:55:06;95862.44;;;12.85
13410;BMP180;6775;49.574;11.170;2023-10-31T01:57:34;95844.38;;;12.85
13410;BMP180;6775;49.574;11.170;2023-10-31T02:00:04;95848.06;;;12.82
13410;BMP180;6775;49.574;11.170;2023-10-31T02:02:36;95858.38;;;12.82
13410;BMP180;6775;49.574;11.170;2023-10-31T02:05:06;95863.72;;;12.81
13410;BMP180;6775;49.574;11.170;2023-10-31T02:07:34;95871.78;;;12.78
13410;BMP180;6775;49.574;11.170;2023-10-31T02:10:03;95886.47;;;12.77
13410;BMP180;6775;49.574;11.170;2023-10-31T02:12:33;95883.88;;;12.77
13410;BMP180;6775;49.574;11.170;2023-10-31T02:15:02;95884.69;;;12.78
13410;BMP180;6775;49.574;11.170;2023-10-31T02:17:31;95888.88;;;12.79
13410;BMP180;6775;49.574;11.170;2023-10-31T02:20:00;95889.56;;;12.73
13410;BMP180;6775;49.574;11.170;2023-10-31T02:22:30;95892.94;;;12.73
13410;BMP180;6775;49.574;11.170;2023-10-31T02:24:58;95885.03;;;12.75
13410;BMP180;6775;49.574;11.170;2023-10-31T02:27:26;95892.75;;;12.75
13410;BMP180;6775;49.574;11.170;2023-10-31T02:29:54;95897.13;;;12.74
13410;BMP180;6775;49.574;11.170;2023-10-31T02:32:22;95893.91;;;12.72
13410;BMP180;6775;49.574;11.170;2023-10-31T02:34:50;95901.38;;;12.67
13410;BMP180;6775;49.574;11.170;2023-10-31T02:37:18;95908.13;;;12.68
13410;BMP180;6775;49.574;11.170;2023-10-31T02:39:48;95908.75;;;12.70
13410;BMP180;6775;49.574;11.170;2023-10-31T02:42:16;95920.03;;;12.69
13410;BMP180;6775;49.574;11.170;2023-10-31T02:44:44;95920.38;;;12.66
13410;BMP180;6775;49.574;11.170;2023-10-31T02:47:12;95921.19;;;12.67
13410;BMP180;6775;49.574;11.170;2023-10-31T02:49:40;95927.13;;;12.67
13410;BMP180;6775;49.574;11.170;2023-10-31T02:52:08;95937.00;;;12.64
13410;BMP180;6775;49.574;11.170;2023-10-31T02:54:36;95949.41;;;12.60
13410;BMP180;6775;49.574;11.170;2023-10-31T02:57:06;95952.50;;;12.56
13410;BMP180;6775;49.574;11.170;2023-10-31T02:59:34;95951.88;;;12.54
13410;BMP180;6775;49.574;11.170;2023-10-31T03:02:02;95961.34;;;12.54
13410;BMP180;6775;49.574;11.170;2023-10-31T03:04:31;95965.41;;;12.48
13410;BMP180;6775;49.574;11.170;2023-10-31T03:06:59;95966.91;;;12.43
13410;BMP180;6775;49.574;11.170;2023-10-31T03:09:27;95982.06;;;12.38
13410;BMP180;6775;49.574;11.170;2023-10-31T03:11:55;95977.25;;;12.35
13410;BMP180;6775;49.574;11.170;2023-10-31T03:14:24;95975.00;;;12.32
13410;BMP180;6775;49.574;11.170;2023-10-31T03:16:52;95987.25;;;12.30
13410;BMP180;6775;49.574;11.170;2023-10-31T03:19:21;95987.59;;;12.27
13410;BMP180;6775;49.574;11.170;2023-10-31T03:21:49;95973.13;;;12.26
13410;BMP180;6775;49.574;11.170;2023-10-31T03:24:17;95971.50;;;12.25
13410;BMP180;6775;49.574;11.170;2023-10-31T03:26:45;95967.47;;;12.22
13410;BMP180;6775;49.574;11.170;2023-10-31T03:29:13;95965.88;;;12.21
13410;BMP180;6775;49.574;11.170;2023-10-31T03:31:42;95972.50;;;12.16
13410;BMP180;6775;49.574;11.170;2023-10-31T03:34:10;95983.16;;;12.13
13410;BMP180;6775;49.574;11.170;2023-10-31T03:36:38;95980.25;;;12.08
13410;BMP180;6775;49.574;11.170;2023-10-31T03:39:06;95984.94;;;12.05
13410;BMP180;6775;49.574;11.170;2023-10-31T03:41:35;95987.69;;;12.03
13410;BMP180;6775;49.574;11.170;2023-10-31T03:44:03;95991.22;;;12.02
13410;BMP180;6775;49.574;11.170;2023-10-31T03:46:32;95996.53;;;12.01
13410;BMP180;6775;49.574;11.170;2023-10-31T03:49:01;96007.16;;;11.98
13410;BMP180;6775;49.574;11.170;2023-10-31T03:51:29;96013.94;;;11.91
13410;BMP180;6775;49.574;11.170;2023-10-31T03:53:57;96009.13;;;11.88
13410;BMP180;6775;49.574;11.170;2023-10-31T03:56:25;95998.38;;;11.84
13410;BMP180;6775;49.574;11.170;2023-10-31T03:58:53;96000.13;;;11.84
13410;BMP180;6775;49.574;11.170;2023-10-31T04:01:22;95996.91;;;11.82
13410;BMP180;6775;49.574;11.170;2023-10-31T04:03:50;95987.13;;;11.77
13410;BMP180;6775;49.574;11.170;2023-10-31T04:06:19;95991.31;;;11.70
13410;BMP180;6775;49.574;11.170;2023-10-31T04:08:47;96005.47;;;11.66
13410;BMP180;6775;49.574;11.170;2023-10-31T04:11:15;96017.06;;;11.62
13410;BMP180;6775;49.574;11.170;2023-10-31T04:13:43;96021.09;;;11.57
13410;BMP180;6775;49.574;11.170;2023-10-31T04:16:11;96023.84;;;11.56
13410;BMP180;6775;49.574;11.170;2023-10-31T04:18:39;96045.38;;;11.55
13410;BMP180;6775;49.574;11.170;2023-10-31T04:21:07;96030.09;;;11.53
13410;BMP180;6775;49.574;11.170;2023-10-31T04:23:37;96026.06;;;11.51
13410;BMP180;6775;49.574;11.170;2023-10-31T04:26:06;96029.59;;;11.50
13410;BMP180;6775;49.574;11.170;2023-10-31T04:28:34;96033.16;;;11.49
13410;BMP180;6775;49.574;11.170;2023-10-31T04:31:04;96041.19;;;11.46
13410;BMP180;6775;49.574;11.170;2023-10-31T04:33:32;96038.94;;;11.43
13410;BMP180;6775;49.574;11.170;2023-10-31T04:36:00;96042.78;;;11.39
13410;BMP180;6775;49.574;11.170;2023-10-31T04:38:29;96037.63;;;11.39
13410;BMP180;6775;49.574;11.170;2023-10-31T04:40:58;96054.03;;;11.38
13410;BMP180;6775;49.574;11.170;2023-10-31T04:43:26;96043.09;;;11.36
13410;BMP180;6775;49.574;11.170;2023-10-31T04:45:54;96051.13;;;11.33
13410;BMP180;6775;49.574;11.170;2023-10-31T04:48:22;96057.25;;;11.32
13410;BMP180;6775;49.574;11.170;2023-10-31T04:50:50;96050.63;;;11.29
13410;BMP180;6775;49.574;11.170;2023-10-31T04:53:18;96053.38;;;11.28
13410;BMP180;6775;49.574;11.170;2023-10-31T04:55:46;96046.66;;;11.27
13410;BMP180;6775;49.574;11.170;2023-10-31T04:58:16;96050.81;;;11.28
13410;BMP180;6775;49.574;11.170;2023-10-31T05:00:44;96056.94;;;11.27
13410;BMP180;6775;49.574;11.170;2023-10-31T05:03:12;96067.38;;;11.25
13410;BMP180;6775;49.574;11.170;2023-10-31T05:05:44;96056.44;;;11.23
13410;BMP180;6775;49.574;11.170;2023-10-31T05:08:12;96068.34;;;11.24
13410;BMP180;6775;49.574;11.170;2023-10-31T05:10:40;96063.34;;;11.23
13410;BMP180;6775;49.574;11.170;2023-10-31T05:13:08;96074.75;;;11.20
13410;BMP180;6775;49.574;11.170;2023-10-31T05:15:38;96073.97;;;11.20
13410;BMP180;6775;49.574;11.170;2023-10-31T05:18:06;96067.81;;;11.21
13410;BMP180;6775;49.574;11.170;2023-10-31T05:20:34;96065.91;;;11.23
13410;BMP180;6775;49.574;11.170;2023-10-31T05:23:02;96072.00;;;11.22
13410;BMP180;6775;49.574;11.170;2023-10-31T05:25:30;96082.31;;;11.22
13410;BMP180;6775;49.574;11.170;2023-10-31T05:27:58;96083.91;;;11.23
13410;BMP180;6775;49.574;11.170;2023-10-31T05:30:27;96076.22;;;11.23
13410;BMP180;6775;49.574;11.170;2023-10-31T05:32:56;96088.25;;;11.22
13410;BMP180;6775;49.574;11.170;2023-10-31T05:35:25;96090.97;;;11.21
13410;BMP180;6775;49.574;11.170;2023-10-31T05:37:53;96095.31;;;11.20
13410;BMP180;6775;49.574;11.170;2023-10-31T05:40:21;96096.44;;;11.18
13410;BMP180;6775;49.574;11.170;2023-10-31T05:42:52;96106.72;;;11.18
13410;BMP180;6775;49.574;11.170;2023-10-31T05:45:20;96109.59;;;11.15
13410;BMP180;6775;49.574;11.170;2023-10-31T05:47:48;96099.31;;;11.15
13410;BMP180;6775;49.574;11.170;2023-10-31T05:50:17;96098.69;;;11.13
13410;BMP180;6775;49.574;11.170;2023-10-31T05:52:46;96090.78;;;11.06
13410;BMP180;6775;49.574;11.170;2023-10-31T05:55:14;96104.47;;;11.07
13410;BMP180;6775;49.574;11.170;2023-10-31T05:57:42;96104.47;;;11.07
13410;BMP180;6775;49.574;11.170;2023-10-31T06:00:11;96101.91;;;11.07
13410;BMP180;6775;49.574;11.170;2023-10-31T06:02:39;96111.84;;;11.10
13410;BMP180;6775;49.574;11.170;2023-10-31T06:05:08;96118.28;;;11.06
13410;BMP180;6775;49.574;11.170;2023-10-31T06:07:38;96113.44;;;11.03
13410;BMP180;6775;49.574;11.170;2023-10-31T06:10:07;96119.38;;;11.04
13410;BMP180;6775;49.574;11.170;2023-10-31T06:12:35;96126.94;;;11.05
13410;BMP180;6775;49.574;11.170;2023-10-31T06:15:04;96125.03;;;11.07
13410;BMP180;6775;49.574;11.170;2023-10-31T06:17:32;96126.31;;;11.11
13410;BMP180;6775;49.574;11.170;2023-10-31T06:20:02;96133.53;;;11.07
13410;BMP180;6775;49.574;11.170;2023-10-31T06:22:30;96143.50;;;11.10
13410;BMP180;6775;49.574;11.170;2023-10-31T06:24:59;96139.97;;;11.11
13410;BMP180;6775;49.574;11.170;2023-10-31T06:27:28;96146.88;;;11.11
13410;BMP180;6775;49.574;11.170;2023-10-31T06:29:56;96142.41;;;11.13
13410;BMP180;6775;49.574;11.170;2023-10-31T06:32:44;96155.25;;;11.13
13410;BMP180;6775;49.574;11.170;2023-10-31T06:35:12;96160.22;;;11.14
13410;BMP180;6775;49.574;11.170;2023-10-31T06:37:40;96161.03;;;11.15
13410;BMP180;6775;49.574;11.170;2023-10-31T06:40:11;96164.09;;;11.18
13410;BMP180;6775;49.574;11.170;2023-10-31T06:42:39;96178.72;;;11.18
13410;BMP180;6775;49.574;11.170;2023-10-31T06:45:08;96186.78;;;11.23
13410;BMP180;6775;49.574;11.170;2023-10-31T06:47:36;96184.53;;;11.28
13410;BMP180;6775;49.574;11.170;2023-10-31T06:50:07;96186.78;;;11.31
13410;BMP180;6775;49.574;11.170;2023-10-31T06:52:35;96191.75;;;11.32
13410;BMP180;6775;49.574;11.170;2023-10-31T06:55:05;96207.38;;;11.39
13410;BMP180;6775;49.574;11.170;2023-10-31T06:57:34;96207.69;;;11.44
13410;BMP180;6775;49.574;11.170;2023-10-31T07:00:04;96208.72;;;11.51
13410;BMP180;6775;49.574;11.170;2023-10-31T07:02:35;96207.13;;;11.57
13410;BMP180;6775;49.574;11.170;2023-10-31T07:05:04;96204.91;;;11.62
13410;BMP180;6775;49.574;11.170;2023-10-31T07:07:33;96211.31;;;11.66
13410;BMP180;6775;49.574;11.170;2023-10-31T07:10:01;96216.47;;;11.66
13410;BMP180;6775;49.574;11.170;2023-10-31T07:12:29;96227.25;;;11.70
13410;BMP180;6775;49.574;11.170;2023-10-31T07:14:59;96230.47;;;11.72
13410;BMP180;6775;49.574;11.170;2023-10-31T07:17:27;96245.13;;;11.71
13410;BMP180;6775;49.574;11.170;2023-10-31T07:19:55;96246.38;;;11.67
13410;BMP180;6775;49.574;11.170;2023-10-31T07:22:23;96245.75;;;11.65
13410;BMP180;6775;49.574;11.170;2023-10-31T07:24:51;96253.63;;;11.64
13410;BMP180;6775;49.574;11.170;2023-10-31T07:27:19;96267.44;;;11.63
13410;BMP180;6775;49.574;11.170;2023-10-31T07:29:47;96266.00;;;11.60
13410;BMP180;6775;49.574;11.170;2023-10-31T07:32:17;96261.50;;;11.62
13410;BMP180;6775;49.574;11.170;2023-10-31T07:34:45;96263.94;;;11.64
13410;BMP180;6775;49.574;11.170;2023-10-31T07:37:14;96267.28;;;11.64
13410;BMP180;6775;49.574;11.170;2023-10-31T07:39:42;96276.63;;;11.65
13410;BMP180;6775;49.574;11.170;2023-10-31T07:42:10;96264.09;;;11.62
13410;BMP180;6775;49.574;11.170;2023-10-31T07:44:38;96274.38;;;11.62
13410;BMP180;6775;49.574;11.170;2023-10-31T07:47:06;96275.31;;;11.61
13410;BMP180;6775;49.574;11.170;2023-10-31T07:49:35;96273.38;;;11.63
13410;BMP180;6775;49.574;11.170;2023-10-31T07:52:05;96277.25;;;11.67
13410;BMP180;6775;49.574;11.170;2023-10-31T07:54:33;96270.84;;;11.71
13410;BMP180;6775;49.574;11.170;2023-10-31T07:57:01;96278.88;;;11.76
13410;BMP180;6775;49.574;11.170;2023-10-31T07:59:29;96284.38;;;11.81
13410;BMP180;6775;49.574;11.170;2023-10-31T08:01:57;96285.81;;;11.84
13410;BMP180;6775;49.574;11.170;2023-10-31T08:04:25;96292.59;;;11.85
13410;BMP180;6775;49.574;11.170;2023-10-31T08:06:56;96283.59;;;11.89
13410;BMP180;6775;49.574;11.170;2023-10-31T08:09:24;96284.06;;;11.92
13410;BMP180;6775;49.574;11.170;2023-10-31T08:11:52;96289.22;;;11.92
13410;BMP180;6775;49.574;11.170;2023-10-31T08:14:20;96294.03;;;11.87
13410;BMP180;6775;49.574;11.170;2023-10-31T08:16:52;96290.63;;;11.87
13410;BMP180;6775;49.574;11.170;2023-10-31T08:19:20;96297.72;;;11.85
13410;BMP180;6775;49.574;11.170;2023-10-31T08:21:48;96296.94;;;11.84
13410;BMP180;6775;49.574;11.170;2023-10-31T08:24:17;96302.09;;;11.84
13410;BMP180;6775;49.574;11.170;2023-10-31T08:26:45;96295.94;;;11.85
13410;BMP180;6775;49.574;11.170;2023-10-31T08:29:14;96300.81;;;11.88
13410;BMP180;6775;49.574;11.170;2023-10-31T08:31:42;96306.09;;;11.87
13410;BMP180;6775;49.574;11.170;2023-10-31T08:34:10;96303.03;;;11.83
13410;BMP180;6775;49.574;11.170;2023-10-31T08:36:38;96317.19;;;11.79
13410;BMP180;6775;49.574;11.170;2023-10-31T08:39:06;96312.69;;;11.81
13410;BMP180;6775;49.574;11.170;2023-10-31T08:41:50;96320.41;;;11.89
13410;BMP180;6775;49.574;11.170;2023-10-31T08:44:18;96317.09;;;12.05
13410;BMP180;6775;49.574;11.170;2023-10-31T08:46:46;96316.78;;;12.15
13410;BMP180;6775;49.574;11.170;2023-10-31T08:49:16;96320.16;;;12.16
13410;BMP180;6775;49.574;11.170;2023-10-31T08:51:44;96317.41;;;12.17
13410;BMP180;6775;49.574;11.170;2023-10-31T08:54:12;96315.97;;;12.15
13410;BMP180;6775;49.574;11.170;2023-10-31T08:56:42;96314.19;;;12.07
13410;BMP180;6775;49.574;11.170;2023-10-31T08:59:10;96322.38;;;12.03
13410;BMP180;6775;49.574;11.170;2023-10-31T09:01:38;96309.50;;;12.03
13410;BMP180;6775;49.574;11.170;2023-10-31T09:04:06;96324.63;;;11.98
13410;BMP180;6775;49.574;11.170;2023-10-31T09:06:34;96321.72;;;11.93
13410;BMP180;6775;49.574;11.170;2023-10-31T09:09:02;96321.09;;;11.91
13410;BMP180;6775;49.574;11.170;2023-10-31T09:11:30;96325.56;;;11.89
13410;BMP180;6775;49.574;11.170;2023-10-31T09:14:00;96327.97;;;11.91
13410;BMP180;6775;49.574;11.170;2023-10-31T09:16:28;96325.91;;;11.94
13410;BMP180;6775;49.574;11.170;2023-10-31T09:18:56;96326.56;;;11.96
13410;BMP180;6775;49.574;11.170;2023-10-31T09:21:24;96318.19;;;11.94
13410;BMP180;6775;49.574;11.170;2023-10-31T09:23:52;96321.41;;;11.96
13410;BMP180;6775;49.574;11.170;2023-10-31T09:26:20;96322.03;;;11.98
13410;BMP180;6775;49.574;11.170;2023-10-31T09:28:48;96315.28;;;12.05
13410;BMP180;6775;49.574;11.170;2023-10-31T09:31:19;96316.13;;;12.06
13410;BMP180;6775;49.574;11.170;2023-10-31T09:33:47;96316.44;;;12.10
13410;BMP180;6775;49.574;11.170;2023-10-31T09:36:15;96310.66;;;12.16
13410;BMP180;6775;49.574;11.170;2023-10-31T09:38:43;96307.44;;;12.22
13410;BMP180;6775;49.574;11.170;2023-10-31T09:41:12;96310.34;;;12.27
13410;BMP180;6775;49.574;11.170;2023-10-31T09:43:41;96323.06;;;12.29
13410;BMP180;6775;49.574;11.170;2023-10-31T09:46:10;96317.91;;;12.29
13410;BMP180;6775;49.574;11.170;2023-10-31T09:48:40;96323.53;;;12.32
13410;BMP180;6775;49.574;11.170;2023-10-31T09:51:11;96316.00;;;12.39
13410;BMP180;6775;49.574;11.170;2023-10-31T09:53:41;96335.63;;;12.48
13410;BMP180;6775;49.574;11.170;2023-10-31T09:56:10;96323.41;;;12.50
13410;BMP180;6775;49.574;11.170;2023-10-31T09:58:38;96328.88;;;12.55
13410;BMP180;6775;49.574;11.170;2023-10-31T10:01:08;96330.81;;;12.53
13410;BMP180;6775;49.574;11.170;2023-10-31T10:03:40;96338.22;;;12.48
13410;BMP180;6775;49.574;11.170;2023-10-31T10:06:10;96346.88;;;12.47
13410;BMP180;6775;49.574;11.170;2023-10-31T10:08:38;96353.03;;;12.46
13410;BMP180;6775;49.574;11.170;2023-10-31T10:11:06;96359.31;;;12.43
13410;BMP180;6775;49.574;11.170;2023-10-31T10:13:35;96352.22;;;12.45
13410;BMP180;6775;49.574;11.170;2023-10-31T10:16:05;96349.31;;;12.48
13410;BMP180;6775;49.574;11.170;2023-10-31T10:18:35;96355.28;;;12.49
13410;BMP180;6775;49.574;11.170;2023-10-31T10:21:08;96360.91;;;12.52
13410;BMP180;6775;49.574;11.170;2023-10-31T10:23:36;96357.19;;;12.47
13410;BMP180;6775;49.574;11.170;2023-10-31T10:26:04;96360.09;;;12.44
13410;BMP180;6775;49.574;11.170;2023-10-31T10:28:33;96372.34;;;12.42
13410;BMP180;6775;49.574;11.170;2023-10-31T10:31:01;96361.09;;;12.43
13410;BMP180;6775;49.574;11.170;2023-10-31T10:33:29;96353.66;;;12.48
13410;BMP180;6775;49.574;11.170;2023-10-31T10:35:59;96363.50;;;12.52
13410;BMP180;6775;49.574;11.170;2023-10-31T10:38:31;96363.16;;;12.55
13410;BMP180;6775;49.574;11.170;2023-10-31T10:41:04;96376.88;;;12.56
13410;BMP180;6775;49.574;11.170;2023-10-31T10:43:37;96386.53;;;12.54
13410;BMP180;6775;49.574;11.170;2023-10-31T10:46:12;96378.78;;;12.54
13410;BMP180;6775;49.574;11.170;2023-10-31T10:48:46;96385.56;;;12.55
13410;BMP180;6775;49.574;11.170;2023-10-31T10:51:21;96395.88;;;12.55
13410;BMP180;6775;49.574;11.170;2023-10-31T10:54:00;96385.72;;;12.61
13410;BMP180;6775;49.574;11.170;2023-10-31T10:56:38;96385.25;;;12.65
13410;BMP180;6775;49.574;11.170;2023-10-31T10:59:14;96392.16;;;12.65
13410;BMP180;6775;49.574;11.170;2023-10-31T11:01:44;96401.34;;;12.67
13410;BMP180;6775;49.574;11.170;2023-10-31T11:04:15;96401.03;;;12.70
13410;BMP180;6775;49.574;11.170;2023-10-31T11:06:45;96407.50;;;12.74
13410;BMP180;6775;49.574;11.170;2023-10-31T11:09:15;96405.53;;;12.76
13410;BMP180;6775;49.574;11.170;2023-10-31T11:11:44;96402.34;;;12.74
13410;BMP180;6775;49.574;11.170;2023-10-31T11:14:16;96398.47;;;12.70
13410;BMP180;6775;49.574;11.170;2023-10-31T11:16:51;96400.06;;;12.71
13410;BMP180;6775;49.574;11.170;2023-10-31T11:19:22;96409.09;;;12.75
13410;BMP180;6775;49.574;11.170;2023-10-31T11:21:55;96402.16;;;12.76
13410;BMP180;6775;49.574;11.170;2023-10-31T11:24:26;96406.41;;;12.93
13410;BMP180;6775;49.574;11.170;2023-10-31T11:27:01;96405.56;;;13.08
13410;BMP180;6775;49.574;11.170;2023-10-31T11:29:30;96408.94;;;13.16
13410;BMP180;6775;49.574;11.170;2023-10-31T11:31:59;96404.41;;;13.26
13410;BMP180;6775;49.574;11.170;2023-10-31T11:34:29;96406.81;;;13.36
13410;BMP180;6775;49.574;11.170;2023-10-31T11:37:24;96406.66;;;13.37
13410;BMP180;6775;49.574;11.170;2023-10-31T11:40:20;96399.06;;;13.36
13410;BMP180;6775;49.574;11.170;2023-10-31T11:42:50;96407.81;;;13.27
13410;BMP180;6775;49.574;11.170;2023-10-31T11:45:30;96411.03;;;13.21
13410;BMP180;6775;49.574;11.170;2023-10-31T11:47:58;96406.19;;;13.18
13410;BMP180;6775;49.574;11.170;2023-10-31T11:50:27;96405.56;;;13.16
13410;BMP180;6775;49.574;11.170;2023-10-31T11:53:04;96407.34;;;13.15
13410;BMP180;6775;49.574;11.170;2023-10-31T11:55:36;96403.31;;;13.13
13410;BMP180;6775;49.574;11.170;2023-10-31T11:58:19;96411.03;;;13.13
13410;BMP180;6775;49.574;11.170;2023-10-31T12:00:49;96403.59;;;13.18
13410;BMP180;6775;49.574;11.170;2023-10-31T12:03:20;96412.63;;;13.22
13410;BMP180;6775;49.574;11.170;2023-10-31T12:05:53;96414.59;;;13.20
13410;BMP180;6775;49.574;11.170;2023-10-31T12:08:27;96421.03;;;13.24
13410;BMP180;6775;49.574;11.170;2023-10-31T12:11:10;96407.13;;;13.41
13410;BMP180;6775;49.574;11.170;2023-10-31T12:13:41;96406.94;;;13.50
13410;BMP180;6775;49.574;11.170;2023-10-31T12:16:10;96401.91;;;13.57
13410;BMP180;6775;49.574;11.170;2023-10-31T12:18:39;96409.66;;;13.57
13410;BMP180;6775;49.574;11.170;2023-10-31T12:21:08;96411.44;;;13.56
13410;BMP180;6775;49.574;11.170;2023-10-31T12:23:37;96415.16;;;13.54
13410;BMP180;6775;49.574;11.170;2023-10-31T12:26:05;96417.94;;;13.44
13410;BMP180;6775;49.574;11.170;2023-10-31T12:28:35;96424.22;;;13.42
13410;BMP180;6775;49.574;11.170;2023-10-31T12:31:05;96424.56;;;13.39
13410;BMP180;6775;49.574;11.170;2023-10-31T12:33:34;96435.19;;;13.36
13410;BMP180;6775;49.574;11.170;2023-10-31T12:36:03;96430.69;;;13.30
13410;BMP180;6775;49.574;11.170;2023-10-31T12:38:33;96423.13;;;13.20
13410;BMP180;6775;49.574;11.170;2023-10-31T12:41:03;96425.56;;;13.14
13410;BMP180;6775;49.574;11.170;2023-10-31T12:43:31;96423.44;;;13.09
13410;BMP180;6775;49.574;11.170;2023-10-31T12:46:28;96417.50;;;13.09
13410;BMP180;6775;49.574;11.170;2023-10-31T12:48:57;96421.84;;;13.09
13410;BMP180;6775;49.574;11.170;2023-10-31T12:51:25;96415.72;;;13.09
13410;BMP180;6775;49.574;11.170;2023-10-31T12:53:54;96421.03;;;13.16
13410;BMP180;6775;49.574;11.170;2023-10-31T12:56:37;96411.69;;;13.15
13410;BMP180;6775;49.574;11.170;2023-10-31T12:59:07;96414.41;;;13.13
13410;BMP180;6775;49.574;11.170;2023-10-31T13:01:42;96413.63;;;13.13
13410;BMP180;6775;49.574;11.170;2023-10-31T13:04:10;96412.00;;;13.12
13410;BMP180;6775;49.574;11.170;2023-10-31T13:06:39;96415.25;;;13.14
13410;BMP180;6775;49.574;11.170;2023-10-31T13:09:07;96412.50;;;13.15
13410;BMP180;6775;49.574;11.170;2023-10-31T13:11:40;96417.34;;;13.18
13410;BMP180;6775;49.574;11.170;2023-10-31T13:14:08;96418.94;;;13.19
13410;BMP180;6775;49.574;11.170;2023-10-31T13:16:37;96420.38;;;13.22
13410;BMP180;6775;49.574;11.170;2023-10-31T13:19:05;96417.16;;;13.20
13410;BMP180;6775;49.574;11.170;2023-10-31T13:21:33;96419.59;;;13.13
13410;BMP180;6775;49.574;11.170;2023-10-31T13:24:01;96419.44;;;13.07
13410;BMP180;6775;49.574;11.170;2023-10-31T13:26:30;96432.00;;;13.02
13410;BMP180;6775;49.574;11.170;2023-10-31T13:28:58;96438.59;;;12.97
13410;BMP180;6775;49.574;11.170;2023-10-31T13:31:26;96438.75;;;12.95
13410;BMP180;6775;49.574;11.170;2023-10-31T13:33:56;96442.16;;;12.96
13410;BMP180;6775;49.574;11.170;2023-10-31T13:36:26;96442.00;;;12.97
13410;BMP180;6775;49.574;11.170;2023-10-31T13:38:56;96439.09;;;13.00
13410;BMP180;6775;49.574;11.170;2023-10-31T13:41:24;96456.84;;;13.03
13410;BMP180;6775;49.574;11.170;2023-10-31T13:43:52;96466.66;;;13.08
13410;BMP180;6775;49.574;11.170;2023-10-31T13:46:20;96454.91;;;13.13
13410;BMP180;6775;49.574;11.170;2023-10-31T13:49:00;96470.84;;;13.16
13410;BMP180;6775;49.574;11.170;2023-10-31T13:51:28;96468.09;;;13.18
13410;BMP180;6775;49.574;11.170;2023-10-31T13:53:56;96472.78;;;13.22
13410;BMP180;6775;49.574;11.170;2023-10-31T13:56:24;96482.47;;;13.28
13410;BMP180;6775;49.574;11.170;2023-10-31T13:58:52;96478.41;;;13.34
13410;BMP180;6775;49.574;11.170;2023-10-31T14:01:21;96480.34;;;13.32
13410;BMP180;6775;49.574;11.170;2023-10-31T14:03:52;96484.56;;;13.33
13410;BMP180;6775;49.574;11.170;2023-10-31T14:06:22;96489.88;;;13.31
13410;BMP180;6775;49.574;11.170;2023-10-31T14:08:52;96486.97;;;13.26
13410;BMP180;6775;49.574;11.170;2023-10-31T14:11:20;96494.06;;;13.24
13410;BMP180;6775;49.574;11.170;2023-10-31T14:13:48;96501.97;;;13.23
13410;BMP180;6775;49.574;11.170;2023-10-31T14:16:17;96522.63;;;13.23
13410;BMP180;6775;49.574;11.170;2023-10-31T14:18:45;96514.72;;;13.24
13410;BMP180;6775;49.574;11.170;2023-10-31T14:21:14;96531.31;;;13.22